sensor_id;sensor_type;location;lat;lon;timestamp;temperature;humidity
70154;DHT22;57519;51.494;-2.626;2022-07-29T00:02:20;14.93;79.87
70154;DHT22;57519;51.494;-2.626;2022-07-29T00:04:46;14.95;79.82
70154;DHT22;57519;51.494;-2.626;2022-07-29T00:07:11;14.89;80.45
70154;DHT22;57519;51.494;-2.626;2022-07-29T00:09:37;14.84;80.76
70154;DHT22;57519;51.494;-2.626;2022-07-29T00:12:02;14.77;81.64
70154;DHT22;57519;51.494;-2.626;2022-07-29T00:14:28;14.74;80.82
70154;DHT22;57519;51.494;-2.626;2022-07-29T00:16:53;14.71;80.35
70154;DHT22;57519;51.494;-2.626;2022-07-29T00:19:19;14.63;80.71
70154;DHT22;57519;51.494;-2.626;2022-07-29T00:21:44;14.64;80.99
70154;DHT22;57519;51.494;-2.626;2022-07-29T00:24:10;14.65;81.15
70154;DHT22;57519;51.494;-2.626;2022-07-29T00:26:35;14.64;81.41
70154;DHT22;57519;51.494;-2.626;2022-07-29T00:29:04;14.71;81.15
70154;DHT22;57519;51.494;-2.626;2022-07-29T00:31:30;14.74;80.93
70154;DHT22;57519;51.494;-2.626;2022-07-29T00:33:55;14.75;81.14
70154;DHT22;57519;51.494;-2.626;2022-07-29T00:36:21;14.75;80.90
70154;DHT22;57519;51.494;-2.626;2022-07-29T00:38:50;14.75;81.10
70154;DHT22;57519;51.494;-2.626;2022-07-29T00:41:17;14.72;81.15
70154;DHT22;57519;51.494;-2.626;2022-07-29T00:43:43;14.72;80.84
70154;DHT22;57519;51.494;-2.626;2022-07-29T00:46:08;14.64;81.29
70154;DHT22;57519;51.494;-2.626;2022-07-29T00:48:34;14.71;81.73
70154;DHT22;57519;51.494;-2.626;2022-07-29T00:51:01;14.67;81.93
70154;DHT22;57519;51.494;-2.626;2022-07-29T00:53:28;14.65;82.41
70154;DHT22;57519;51.494;-2.626;2022-07-29T00:55:54;14.65;82.11
70154;DHT22;57519;51.494;-2.626;2022-07-29T00:58:21;14.61;81.75
70154;DHT22;57519;51.494;-2.626;2022-07-29T01:00:46;14.60;81.88
70154;DHT22;57519;51.494;-2.626;2022-07-29T01:03:12;14.56;82.55
70154;DHT22;57519;51.494;-2.626;2022-07-29T01:05:39;14.57;82.87
70154;DHT22;57519;51.494;-2.626;2022-07-29T01:08:06;14.53;82.53
70154;DHT22;57519;51.494;-2.626;2022-07-29T01:10:33;14.53;82.47
70154;DHT22;57519;51.494;-2.626;2022-07-29T01:13:01;14.53;82.51
70154;DHT22;57519;51.494;-2.626;2022-07-29T01:15:26;14.47;82.31
70154;DHT22;57519;51.494;-2.626;2022-07-29T01:18:02;14.48;81.75
70154;DHT22;57519;51.494;-2.626;2022-07-29T01:31:06;14.54;81.44
70154;DHT22;57519;51.494;-2.626;2022-07-29T01:33:39;14.54;81.37
70154;DHT22;57519;51.494;-2.626;2022-07-29T01:36:37;14.47;81.74
70154;DHT22;57519;51.494;-2.626;2022-07-29T01:39:10;14.41;82.43
70154;DHT22;57519;51.494;-2.626;2022-07-29T01:41:40;14.38;82.62
70154;DHT22;57519;51.494;-2.626;2022-07-29T01:44:20;14.27;82.50
70154;DHT22;57519;51.494;-2.626;2022-07-29T01:46:54;14.32;82.85
70154;DHT22;57519;51.494;-2.626;2022-07-29T01:49:27;14.29;82.32
70154;DHT22;57519;51.494;-2.626;2022-07-29T01:51:57;14.30;82.59
70154;DHT22;57519;51.494;-2.626;2022-07-29T01:54:37;14.29;82.18
70154;DHT22;57519;51.494;-2.626;2022-07-29T01:57:04;14.29;82.40
70154;DHT22;57519;51.494;-2.626;2022-07-29T01:59:33;14.33;82.04
70154;DHT22;57519;51.494;-2.626;2022-07-29T02:02:01;14.30;82.23
70154;DHT22;57519;51.494;-2.626;2022-07-29T02:04:28;14.27;81.94
70154;DHT22;57519;51.494;-2.626;2022-07-29T02:06:58;14.27;82.17
70154;DHT22;57519;51.494;-2.626;2022-07-29T02:09:25;14.30;81.95
70154;DHT22;57519;51.494;-2.626;2022-07-29T02:11:53;14.29;81.77
70154;DHT22;57519;51.494;-2.626;2022-07-29T02:14:21;14.30;81.51
70154;DHT22;57519;51.494;-2.626;2022-07-29T02:16:51;14.27;81.88
70154;DHT22;57519;51.494;-2.626;2022-07-29T02:19:19;14.29;81.76
70154;DHT22;57519;51.494;-2.626;2022-07-29T02:21:46;14.33;81.77
70154;DHT22;57519;51.494;-2.626;2022-07-29T02:24:13;14.29;81.77
70154;DHT22;57519;51.494;-2.626;2022-07-29T02:26:41;14.24;81.42
70154;DHT22;57519;51.494;-2.626;2022-07-29T02:29:09;14.19;82.27
70154;DHT22;57519;51.494;-2.626;2022-07-29T02:31:36;14.13;82.39
70154;DHT22;57519;51.494;-2.626;2022-07-29T02:34:06;14.09;82.01
70154;DHT22;57519;51.494;-2.626;2022-07-29T02:36:33;13.95;82.24
70154;DHT22;57519;51.494;-2.626;2022-07-29T02:39:00;13.92;82.28
70154;DHT22;57519;51.494;-2.626;2022-07-29T02:41:58;13.79;82.41
70154;DHT22;57519;51.494;-2.626;2022-07-29T02:44:26;13.75;82.59
70154;DHT22;57519;51.494;-2.626;2022-07-29T02:46:55;13.62;82.80
70154;DHT22;57519;51.494;-2.626;2022-07-29T02:49:40;13.58;82.94
70154;DHT22;57519;51.494;-2.626;2022-07-29T02:54:46;13.54;83.01
70154;DHT22;57519;51.494;-2.626;2022-07-29T02:57:28;13.48;83.29
70154;DHT22;57519;51.494;-2.626;2022-07-29T02:59:58;13.47;83.28
70154;DHT22;57519;51.494;-2.626;2022-07-29T03:02:25;13.44;83.83
70154;DHT22;57519;51.494;-2.626;2022-07-29T03:04:52;13.43;83.38
70154;DHT22;57519;51.494;-2.626;2022-07-29T03:07:20;13.37;83.35
70154;DHT22;57519;51.494;-2.626;2022-07-29T03:09:46;13.36;83.21
70154;DHT22;57519;51.494;-2.626;2022-07-29T03:12:12;13.37;83.82
70154;DHT22;57519;51.494;-2.626;2022-07-29T03:14:38;13.26;83.28
70154;DHT22;57519;51.494;-2.626;2022-07-29T03:17:05;13.24;83.61
70154;DHT22;57519;51.494;-2.626;2022-07-29T03:19:30;13.14;83.85
70154;DHT22;57519;51.494;-2.626;2022-07-29T03:21:58;13.20;84.20
70154;DHT22;57519;51.494;-2.626;2022-07-29T03:24:34;13.17;84.41
70154;DHT22;57519;51.494;-2.626;2022-07-29T03:27:00;13.18;84.23
70154;DHT22;57519;51.494;-2.626;2022-07-29T03:29:26;13.24;84.06
70154;DHT22;57519;51.494;-2.626;2022-07-29T03:31:52;13.26;84.04
70154;DHT22;57519;51.494;-2.626;2022-07-29T03:34:18;13.18;84.46
70154;DHT22;57519;51.494;-2.626;2022-07-29T03:36:44;13.18;84.28
70154;DHT22;57519;51.494;-2.626;2022-07-29T03:39:10;13.14;84.18
70154;DHT22;57519;51.494;-2.626;2022-07-29T03:41:38;13.18;83.21
70154;DHT22;57519;51.494;-2.626;2022-07-29T03:44:05;13.27;83.34
70154;DHT22;57519;51.494;-2.626;2022-07-29T03:46:33;13.34;83.31
70154;DHT22;57519;51.494;-2.626;2022-07-29T03:49:01;13.33;83.02
70154;DHT22;57519;51.494;-2.626;2022-07-29T03:51:27;13.28;83.23
70154;DHT22;57519;51.494;-2.626;2022-07-29T03:53:53;13.24;83.42
70154;DHT22;57519;51.494;-2.626;2022-07-29T03:56:21;13.18;83.32
70154;DHT22;57519;51.494;-2.626;2022-07-29T03:58:48;13.13;83.17
70154;DHT22;57519;51.494;-2.626;2022-07-29T04:01:15;13.06;83.24
70154;DHT22;57519;51.494;-2.626;2022-07-29T04:03:43;12.92;83.32
70154;DHT22;57519;51.494;-2.626;2022-07-29T04:06:10;12.88;83.70
70154;DHT22;57519;51.494;-2.626;2022-07-29T04:08:36;12.88;83.99
70154;DHT22;57519;51.494;-2.626;2022-07-29T04:11:02;12.82;84.27
70154;DHT22;57519;51.494;-2.626;2022-07-29T04:13:28;12.78;84.58
70154;DHT22;57519;51.494;-2.626;2022-07-29T04:15:54;12.79;84.38
70154;DHT22;57519;51.494;-2.626;2022-07-29T04:18:19;12.79;84.75
70154;DHT22;57519;51.494;-2.626;2022-07-29T04:20:44;12.76;84.38
70154;DHT22;57519;51.494;-2.626;2022-07-29T04:23:10;12.75;84.96
70154;DHT22;57519;51.494;-2.626;2022-07-29T04:25:40;12.85;83.45
70154;DHT22;57519;51.494;-2.626;2022-07-29T04:28:06;12.79;84.11
70154;DHT22;57519;51.494;-2.626;2022-07-29T04:30:32;12.86;84.01
70154;DHT22;57519;51.494;-2.626;2022-07-29T04:32:59;12.82;84.20
70154;DHT22;57519;51.494;-2.626;2022-07-29T04:35:26;12.71;83.91
70154;DHT22;57519;51.494;-2.626;2022-07-29T04:37:51;12.71;84.06
70154;DHT22;57519;51.494;-2.626;2022-07-29T04:40:17;12.66;83.96
70154;DHT22;57519;51.494;-2.626;2022-07-29T04:42:42;12.66;83.68
70154;DHT22;57519;51.494;-2.626;2022-07-29T04:45:08;12.69;83.72
70154;DHT22;57519;51.494;-2.626;2022-07-29T04:47:34;12.73;83.54
70154;DHT22;57519;51.494;-2.626;2022-07-29T04:50:00;12.71;83.27
70154;DHT22;57519;51.494;-2.626;2022-07-29T04:52:25;12.66;83.47
70154;DHT22;57519;51.494;-2.626;2022-07-29T04:54:50;12.66;83.70
70154;DHT22;57519;51.494;-2.626;2022-07-29T04:57:16;12.66;83.77
70154;DHT22;57519;51.494;-2.626;2022-07-29T04:59:41;12.65;83.73
70154;DHT22;57519;51.494;-2.626;2022-07-29T05:02:07;12.68;83.76
70154;DHT22;57519;51.494;-2.626;2022-07-29T05:04:32;12.72;84.10
70154;DHT22;57519;51.494;-2.626;2022-07-29T05:06:58;12.75;83.67
70154;DHT22;57519;51.494;-2.626;2022-07-29T05:09:23;12.76;83.61
70154;DHT22;57519;51.494;-2.626;2022-07-29T05:11:48;12.86;83.69
70154;DHT22;57519;51.494;-2.626;2022-07-29T05:14:14;12.89;83.57
70154;DHT22;57519;51.494;-2.626;2022-07-29T05:16:39;12.92;83.88
70154;DHT22;57519;51.494;-2.626;2022-07-29T05:19:05;12.99;83.73
70154;DHT22;57519;51.494;-2.626;2022-07-29T05:21:31;12.97;83.72
70154;DHT22;57519;51.494;-2.626;2022-07-29T05:23:57;13.02;83.40
70154;DHT22;57519;51.494;-2.626;2022-07-29T05:26:22;13.11;83.67
70154;DHT22;57519;51.494;-2.626;2022-07-29T05:28:47;13.16;83.14
70154;DHT22;57519;51.494;-2.626;2022-07-29T05:31:13;13.24;83.76
70154;DHT22;57519;51.494;-2.626;2022-07-29T05:33:40;13.37;83.62
70154;DHT22;57519;51.494;-2.626;2022-07-29T05:36:06;13.50;83.08
70154;DHT22;57519;51.494;-2.626;2022-07-29T05:38:32;13.57;82.58
70154;DHT22;57519;51.494;-2.626;2022-07-29T05:40:58;13.61;82.51
70154;DHT22;57519;51.494;-2.626;2022-07-29T05:43:25;13.65;82.84
70154;DHT22;57519;51.494;-2.626;2022-07-29T05:45:50;13.75;82.77
70154;DHT22;57519;51.494;-2.626;2022-07-29T05:48:16;13.90;82.50
70154;DHT22;57519;51.494;-2.626;2022-07-29T05:50:41;13.89;82.69
70154;DHT22;57519;51.494;-2.626;2022-07-29T05:53:06;14.02;82.42
70154;DHT22;57519;51.494;-2.626;2022-07-29T05:55:32;14.17;81.83
70154;DHT22;57519;51.494;-2.626;2022-07-29T05:57:57;14.27;82.17
70154;DHT22;57519;51.494;-2.626;2022-07-29T06:00:23;14.33;81.87
70154;DHT22;57519;51.494;-2.626;2022-07-29T06:02:48;14.41;81.23
70154;DHT22;57519;51.494;-2.626;2022-07-29T06:05:13;14.53;80.72
70154;DHT22;57519;51.494;-2.626;2022-07-29T06:07:40;14.78;79.96
70154;DHT22;57519;51.494;-2.626;2022-07-29T06:10:06;14.84;79.61
70154;DHT22;57519;51.494;-2.626;2022-07-29T06:12:31;15.08;77.75
70154;DHT22;57519;51.494;-2.626;2022-07-29T06:14:57;15.39;75.40
70154;DHT22;57519;51.494;-2.626;2022-07-29T06:17:23;15.56;75.09
70154;DHT22;57519;51.494;-2.626;2022-07-29T06:19:48;15.68;74.87
70154;DHT22;57519;51.494;-2.626;2022-07-29T06:22:15;15.73;75.82
70154;DHT22;57519;51.494;-2.626;2022-07-29T06:24:41;15.94;74.18
70154;DHT22;57519;51.494;-2.626;2022-07-29T06:27:11;16.05;73.94
70154;DHT22;57519;51.494;-2.626;2022-07-29T06:29:37;16.29;72.92
70154;DHT22;57519;51.494;-2.626;2022-07-29T06:32:03;16.33;72.28
70154;DHT22;57519;51.494;-2.626;2022-07-29T06:34:29;16.38;72.45
70154;DHT22;57519;51.494;-2.626;2022-07-29T06:36:54;16.50;72.99
70154;DHT22;57519;51.494;-2.626;2022-07-29T06:39:19;16.66;71.53
70154;DHT22;57519;51.494;-2.626;2022-07-29T06:41:49;16.80;71.19
70154;DHT22;57519;51.494;-2.626;2022-07-29T06:44:16;16.87;71.20
70154;DHT22;57519;51.494;-2.626;2022-07-29T06:46:43;16.88;71.02
70154;DHT22;57519;51.494;-2.626;2022-07-29T06:49:09;16.87;70.40
70154;DHT22;57519;51.494;-2.626;2022-07-29T06:51:35;16.88;71.06
70154;DHT22;57519;51.494;-2.626;2022-07-29T06:54:01;16.95;70.20
70154;DHT22;57519;51.494;-2.626;2022-07-29T06:56:28;17.06;70.52
70154;DHT22;57519;51.494;-2.626;2022-07-29T06:58:53;17.10;70.74
70154;DHT22;57519;51.494;-2.626;2022-07-29T07:01:18;17.14;70.48
70154;DHT22;57519;51.494;-2.626;2022-07-29T07:03:45;17.24;70.23
70154;DHT22;57519;51.494;-2.626;2022-07-29T07:06:10;17.34;69.74
70154;DHT22;57519;51.494;-2.626;2022-07-29T07:08:35;17.29;69.85
70154;DHT22;57519;51.494;-2.626;2022-07-29T07:11:01;17.48;70.00
70154;DHT22;57519;51.494;-2.626;2022-07-29T07:13:26;17.55;69.46
70154;DHT22;57519;51.494;-2.626;2022-07-29T07:15:53;17.72;69.10
70154;DHT22;57519;51.494;-2.626;2022-07-29T07:18:18;17.84;68.49
70154;DHT22;57519;51.494;-2.626;2022-07-29T07:20:44;17.96;67.55
70154;DHT22;57519;51.494;-2.626;2022-07-29T07:23:10;18.00;68.38
70154;DHT22;57519;51.494;-2.626;2022-07-29T07:25:36;18.07;68.35
70154;DHT22;57519;51.494;-2.626;2022-07-29T07:28:02;18.13;68.18
70154;DHT22;57519;51.494;-2.626;2022-07-29T07:30:28;18.27;67.61
70154;DHT22;57519;51.494;-2.626;2022-07-29T07:32:54;18.27;67.23
70154;DHT22;57519;51.494;-2.626;2022-07-29T07:35:20;18.38;67.50
70154;DHT22;57519;51.494;-2.626;2022-07-29T07:37:46;18.47;66.79
70154;DHT22;57519;51.494;-2.626;2022-07-29T07:40:12;18.52;67.12
70154;DHT22;57519;51.494;-2.626;2022-07-29T07:42:38;18.66;66.98
70154;DHT22;57519;51.494;-2.626;2022-07-29T07:45:04;18.65;66.64
70154;DHT22;57519;51.494;-2.626;2022-07-29T07:47:31;18.75;65.13
70154;DHT22;57519;51.494;-2.626;2022-07-29T07:49:56;18.83;65.27
70154;DHT22;57519;51.494;-2.626;2022-07-29T07:52:22;18.83;65.45
70154;DHT22;57519;51.494;-2.626;2022-07-29T07:54:48;18.83;65.28
70154;DHT22;57519;51.494;-2.626;2022-07-29T07:57:13;18.80;65.86
70154;DHT22;57519;51.494;-2.626;2022-07-29T07:59:39;18.80;65.33
70154;DHT22;57519;51.494;-2.626;2022-07-29T08:02:05;19.02;64.85
70154;DHT22;57519;51.494;-2.626;2022-07-29T08:04:31;19.04;64.43
70154;DHT22;57519;51.494;-2.626;2022-07-29T08:06:57;19.20;63.95
70154;DHT22;57519;51.494;-2.626;2022-07-29T08:09:24;19.20;63.66
70154;DHT22;57519;51.494;-2.626;2022-07-29T08:11:50;19.30;63.81
70154;DHT22;57519;51.494;-2.626;2022-07-29T08:14:16;19.58;63.13
70154;DHT22;57519;51.494;-2.626;2022-07-29T08:16:41;19.65;62.70
70154;DHT22;57519;51.494;-2.626;2022-07-29T08:19:07;19.85;60.58
70154;DHT22;57519;51.494;-2.626;2022-07-29T08:21:33;19.96;61.70
70154;DHT22;57519;51.494;-2.626;2022-07-29T08:23:58;20.24;60.26
70154;DHT22;57519;51.494;-2.626;2022-07-29T08:26:43;20.32;59.91
70154;DHT22;57519;51.494;-2.626;2022-07-29T08:29:09;20.41;60.44
70154;DHT22;57519;51.494;-2.626;2022-07-29T08:31:36;20.44;59.46
70154;DHT22;57519;51.494;-2.626;2022-07-29T08:34:02;20.65;59.32
70154;DHT22;57519;51.494;-2.626;2022-07-29T08:36:28;20.78;58.16
70154;DHT22;57519;51.494;-2.626;2022-07-29T08:38:54;20.72;57.99
70154;DHT22;57519;51.494;-2.626;2022-07-29T08:41:20;20.80;58.61
70154;DHT22;57519;51.494;-2.626;2022-07-29T08:43:46;21.15;57.60
70154;DHT22;57519;51.494;-2.626;2022-07-29T08:46:12;21.20;57.58
70154;DHT22;57519;51.494;-2.626;2022-07-29T08:48:38;21.32;56.90
70154;DHT22;57519;51.494;-2.626;2022-07-29T08:51:06;21.15;55.58
70154;DHT22;57519;51.494;-2.626;2022-07-29T08:53:32;21.12;57.67
70154;DHT22;57519;51.494;-2.626;2022-07-29T08:55:59;21.10;56.89
70154;DHT22;57519;51.494;-2.626;2022-07-29T08:58:25;21.05;56.59
70154;DHT22;57519;51.494;-2.626;2022-07-29T09:00:54;20.94;57.89
70154;DHT22;57519;51.494;-2.626;2022-07-29T09:03:22;20.91;57.95
70154;DHT22;57519;51.494;-2.626;2022-07-29T09:05:49;21.10;57.82
70154;DHT22;57519;51.494;-2.626;2022-07-29T09:08:16;21.05;56.86
70154;DHT22;57519;51.494;-2.626;2022-07-29T09:10:42;21.15;57.70
70154;DHT22;57519;51.494;-2.626;2022-07-29T09:13:08;21.25;56.44
70154;DHT22;57519;51.494;-2.626;2022-07-29T09:15:33;21.51;55.96
70154;DHT22;57519;51.494;-2.626;2022-07-29T09:17:59;21.49;55.28
70154;DHT22;57519;51.494;-2.626;2022-07-29T09:20:26;21.36;56.05
70154;DHT22;57519;51.494;-2.626;2022-07-29T09:23:12;21.33;56.84
70154;DHT22;57519;51.494;-2.626;2022-07-29T09:25:40;21.68;54.64
70154;DHT22;57519;51.494;-2.626;2022-07-29T09:28:16;21.81;54.00
70154;DHT22;57519;51.494;-2.626;2022-07-29T09:30:57;21.75;55.93
70154;DHT22;57519;51.494;-2.626;2022-07-29T09:33:24;21.88;53.71
70154;DHT22;57519;51.494;-2.626;2022-07-29T09:36:08;22.12;54.19
70154;DHT22;57519;51.494;-2.626;2022-07-29T09:38:35;22.19;54.09
70154;DHT22;57519;51.494;-2.626;2022-07-29T09:41:04;22.01;53.19
70154;DHT22;57519;51.494;-2.626;2022-07-29T09:43:30;22.12;54.10
70154;DHT22;57519;51.494;-2.626;2022-07-29T09:45:55;22.15;54.22
70154;DHT22;57519;51.494;-2.626;2022-07-29T09:48:23;22.04;53.53
70154;DHT22;57519;51.494;-2.626;2022-07-29T09:50:49;22.15;54.54
70154;DHT22;57519;51.494;-2.626;2022-07-29T09:55:55;22.04;54.68
70154;DHT22;57519;51.494;-2.626;2022-07-29T09:58:21;22.18;54.90
70154;DHT22;57519;51.494;-2.626;2022-07-29T10:00:49;22.32;54.63
70154;DHT22;57519;51.494;-2.626;2022-07-29T10:03:15;22.32;53.47
70154;DHT22;57519;51.494;-2.626;2022-07-29T10:05:42;22.60;53.97
70154;DHT22;57519;51.494;-2.626;2022-07-29T10:08:08;22.71;52.93
70154;DHT22;57519;51.494;-2.626;2022-07-29T10:10:37;22.90;52.72
70154;DHT22;57519;51.494;-2.626;2022-07-29T10:13:08;22.84;52.73
70154;DHT22;57519;51.494;-2.626;2022-07-29T10:15:39;22.80;53.25
70154;DHT22;57519;51.494;-2.626;2022-07-29T10:18:12;23.11;52.38
70154;DHT22;57519;51.494;-2.626;2022-07-29T10:20:38;23.07;52.21
70154;DHT22;57519;51.494;-2.626;2022-07-29T10:23:04;23.29;52.54
70154;DHT22;57519;51.494;-2.626;2022-07-29T10:25:30;23.24;51.71
70154;DHT22;57519;51.494;-2.626;2022-07-29T10:27:56;23.21;51.12
70154;DHT22;57519;51.494;-2.626;2022-07-29T10:30:23;23.42;51.08
70154;DHT22;57519;51.494;-2.626;2022-07-29T10:44:17;23.21;49.44
70154;DHT22;57519;51.494;-2.626;2022-07-29T10:46:43;23.22;49.85
70154;DHT22;57519;51.494;-2.626;2022-07-29T10:49:13;23.22;49.55
70154;DHT22;57519;51.494;-2.626;2022-07-29T10:52:07;23.19;48.65
70154;DHT22;57519;51.494;-2.626;2022-07-29T11:05:14;23.69;47.14
70154;DHT22;57519;51.494;-2.626;2022-07-29T11:10:38;23.83;48.41
70154;DHT22;57519;51.494;-2.626;2022-07-29T11:13:04;23.97;48.18
70154;DHT22;57519;51.494;-2.626;2022-07-29T11:15:56;23.87;46.79
70154;DHT22;57519;51.494;-2.626;2022-07-29T11:18:22;23.82;46.85
70154;DHT22;57519;51.494;-2.626;2022-07-29T11:20:50;23.96;47.56
70154;DHT22;57519;51.494;-2.626;2022-07-29T11:23:25;24.10;46.08
70154;DHT22;57519;51.494;-2.626;2022-07-29T11:26:17;24.16;46.04
70154;DHT22;57519;51.494;-2.626;2022-07-29T11:31:38;23.65;45.44
70154;DHT22;57519;51.494;-2.626;2022-07-29T11:34:23;24.16;44.06
70154;DHT22;57519;51.494;-2.626;2022-07-29T11:39:34;24.30;43.65
70154;DHT22;57519;51.494;-2.626;2022-07-29T11:47:37;23.94;45.29
70154;DHT22;57519;51.494;-2.626;2022-07-29T11:50:05;24.40;46.09
70154;DHT22;57519;51.494;-2.626;2022-07-29T11:52:36;24.61;44.95
70154;DHT22;57519;51.494;-2.626;2022-07-29T11:55:16;24.88;42.27
70154;DHT22;57519;51.494;-2.626;2022-07-29T11:57:46;24.93;41.70
70154;DHT22;57519;51.494;-2.626;2022-07-29T12:00:21;25.02;42.47
70154;DHT22;57519;51.494;-2.626;2022-07-29T12:02:47;25.00;42.96
70154;DHT22;57519;51.494;-2.626;2022-07-29T12:05:12;24.97;41.95
70154;DHT22;57519;51.494;-2.626;2022-07-29T12:07:39;25.03;42.90
70154;DHT22;57519;51.494;-2.626;2022-07-29T12:10:05;25.24;42.39
70154;DHT22;57519;51.494;-2.626;2022-07-29T12:12:31;25.23;42.76
70154;DHT22;57519;51.494;-2.626;2022-07-29T12:14:57;25.36;43.74
70154;DHT22;57519;51.494;-2.626;2022-07-29T12:17:27;25.13;41.52
70154;DHT22;57519;51.494;-2.626;2022-07-29T12:19:53;25.07;42.92
70154;DHT22;57519;51.494;-2.626;2022-07-29T12:22:45;25.07;41.72
70154;DHT22;57519;51.494;-2.626;2022-07-29T12:25:14;25.10;42.42
70154;DHT22;57519;51.494;-2.626;2022-07-29T12:27:40;25.24;42.28
70154;DHT22;57519;51.494;-2.626;2022-07-29T12:30:11;25.02;42.15
70154;DHT22;57519;51.494;-2.626;2022-07-29T12:32:46;24.71;42.07
70154;DHT22;57519;51.494;-2.626;2022-07-29T12:35:14;24.62;43.08
70154;DHT22;57519;51.494;-2.626;2022-07-29T12:37:42;24.32;43.64
70154;DHT22;57519;51.494;-2.626;2022-07-29T12:40:10;24.40;44.02
70154;DHT22;57519;51.494;-2.626;2022-07-29T12:42:36;24.72;43.43
70154;DHT22;57519;51.494;-2.626;2022-07-29T12:45:03;25.15;42.88
70154;DHT22;57519;51.494;-2.626;2022-07-29T12:47:29;25.47;41.99
70154;DHT22;57519;51.494;-2.626;2022-07-29T12:50:12;25.88;42.37
70154;DHT22;57519;51.494;-2.626;2022-07-29T12:52:40;25.89;39.00
70154;DHT22;57519;51.494;-2.626;2022-07-29T12:55:06;25.81;39.49
70154;DHT22;57519;51.494;-2.626;2022-07-29T12:57:32;26.09;41.90
70154;DHT22;57519;51.494;-2.626;2022-07-29T13:00:09;26.30;39.67
70154;DHT22;57519;51.494;-2.626;2022-07-29T13:02:37;26.29;39.03
70154;DHT22;57519;51.494;-2.626;2022-07-29T13:05:04;26.41;37.92
70154;DHT22;57519;51.494;-2.626;2022-07-29T13:07:32;26.59;37.95
70154;DHT22;57519;51.494;-2.626;2022-07-29T13:10:11;26.57;39.35
70154;DHT22;57519;51.494;-2.626;2022-07-29T13:12:37;26.92;39.35
70154;DHT22;57519;51.494;-2.626;2022-07-29T13:15:15;27.04;36.99
70154;DHT22;57519;51.494;-2.626;2022-07-29T13:17:44;27.36;37.96
70154;DHT22;57519;51.494;-2.626;2022-07-29T13:20:11;27.38;35.88
70154;DHT22;57519;51.494;-2.626;2022-07-29T13:22:41;27.14;40.61
70154;DHT22;57519;51.494;-2.626;2022-07-29T13:25:08;26.81;41.59
70154;DHT22;57519;51.494;-2.626;2022-07-29T13:27:36;26.57;41.31
70154;DHT22;57519;51.494;-2.626;2022-07-29T13:30:05;26.67;40.64
70154;DHT22;57519;51.494;-2.626;2022-07-29T13:32:31;26.61;42.31
70154;DHT22;57519;51.494;-2.626;2022-07-29T13:34:59;26.73;42.14
70154;DHT22;57519;51.494;-2.626;2022-07-29T13:37:25;26.68;39.17
70154;DHT22;57519;51.494;-2.626;2022-07-29T13:39:51;26.95;39.43
70154;DHT22;57519;51.494;-2.626;2022-07-29T13:42:18;27.14;39.00
70154;DHT22;57519;51.494;-2.626;2022-07-29T13:44:43;27.18;37.56
70154;DHT22;57519;51.494;-2.626;2022-07-29T13:47:09;27.16;38.67
70154;DHT22;57519;51.494;-2.626;2022-07-29T13:49:35;27.49;39.47
70154;DHT22;57519;51.494;-2.626;2022-07-29T13:52:01;27.77;37.28
70154;DHT22;57519;51.494;-2.626;2022-07-29T13:54:26;27.71;34.80
70154;DHT22;57519;51.494;-2.626;2022-07-29T13:56:52;27.66;35.69
70154;DHT22;57519;51.494;-2.626;2022-07-29T13:59:17;27.53;36.18
70154;DHT22;57519;51.494;-2.626;2022-07-29T14:01:43;27.42;35.79
70154;DHT22;57519;51.494;-2.626;2022-07-29T14:04:09;26.64;41.09
70154;DHT22;57519;51.494;-2.626;2022-07-29T14:06:35;26.63;41.59
70154;DHT22;57519;51.494;-2.626;2022-07-29T14:09:01;26.70;41.26
70154;DHT22;57519;51.494;-2.626;2022-07-29T14:11:26;26.53;42.91
70154;DHT22;57519;51.494;-2.626;2022-07-29T14:13:52;26.23;42.40
70154;DHT22;57519;51.494;-2.626;2022-07-29T14:16:17;26.29;42.84
70154;DHT22;57519;51.494;-2.626;2022-07-29T14:18:43;25.70;42.57
70154;DHT22;57519;51.494;-2.626;2022-07-29T14:21:08;25.82;42.10
70154;DHT22;57519;51.494;-2.626;2022-07-29T14:23:35;25.89;41.84
70154;DHT22;57519;51.494;-2.626;2022-07-29T14:26:00;26.36;41.58
70154;DHT22;57519;51.494;-2.626;2022-07-29T14:28:26;26.73;41.64
70154;DHT22;57519;51.494;-2.626;2022-07-29T14:30:51;26.67;42.17
70154;DHT22;57519;51.494;-2.626;2022-07-29T14:33:17;26.30;43.05
70154;DHT22;57519;51.494;-2.626;2022-07-29T14:35:42;25.93;43.11
70154;DHT22;57519;51.494;-2.626;2022-07-29T14:38:08;25.82;43.07
70154;DHT22;57519;51.494;-2.626;2022-07-29T14:40:34;26.11;42.50
70154;DHT22;57519;51.494;-2.626;2022-07-29T14:42:59;26.40;42.25
70154;DHT22;57519;51.494;-2.626;2022-07-29T14:45:25;26.32;42.97
70154;DHT22;57519;51.494;-2.626;2022-07-29T14:47:50;26.41;43.00
70154;DHT22;57519;51.494;-2.626;2022-07-29T14:50:16;26.46;43.01
70154;DHT22;57519;51.494;-2.626;2022-07-29T14:52:42;26.43;42.46
70154;DHT22;57519;51.494;-2.626;2022-07-29T14:55:08;26.44;42.89
70154;DHT22;57519;51.494;-2.626;2022-07-29T14:57:33;26.26;43.40
70154;DHT22;57519;51.494;-2.626;2022-07-29T14:59:59;26.03;43.98
70154;DHT22;57519;51.494;-2.626;2022-07-29T15:02:24;25.81;44.48
70154;DHT22;57519;51.494;-2.626;2022-07-29T15:04:50;26.03;43.80
70154;DHT22;57519;51.494;-2.626;2022-07-29T15:07:15;25.95;43.64
70154;DHT22;57519;51.494;-2.626;2022-07-29T15:09:41;25.93;43.35
70154;DHT22;57519;51.494;-2.626;2022-07-29T15:12:07;25.96;43.53
70154;DHT22;57519;51.494;-2.626;2022-07-29T15:14:33;25.89;44.02
70154;DHT22;57519;51.494;-2.626;2022-07-29T15:16:58;25.88;43.88
70154;DHT22;57519;51.494;-2.626;2022-07-29T15:19:24;26.16;43.31
70154;DHT22;57519;51.494;-2.626;2022-07-29T15:21:49;26.22;42.68
70154;DHT22;57519;51.494;-2.626;2022-07-29T15:24:19;26.13;42.56
70154;DHT22;57519;51.494;-2.626;2022-07-29T15:26:45;26.03;43.24
70154;DHT22;57519;51.494;-2.626;2022-07-29T15:29:10;25.88;43.17
70154;DHT22;57519;51.494;-2.626;2022-07-29T15:31:36;25.80;43.37
70154;DHT22;57519;51.494;-2.626;2022-07-29T15:34:01;26.13;43.14
70154;DHT22;57519;51.494;-2.626;2022-07-29T15:36:26;26.08;42.42
70154;DHT22;57519;51.494;-2.626;2022-07-29T15:38:53;26.30;41.97
70154;DHT22;57519;51.494;-2.626;2022-07-29T15:41:19;26.20;40.85
70154;DHT22;57519;51.494;-2.626;2022-07-29T15:43:45;26.09;41.41
70154;DHT22;57519;51.494;-2.626;2022-07-29T15:46:17;26.13;41.13
70154;DHT22;57519;51.494;-2.626;2022-07-29T15:49:03;25.88;40.51
70154;DHT22;57519;51.494;-2.626;2022-07-29T15:51:29;25.80;40.85
70154;DHT22;57519;51.494;-2.626;2022-07-29T15:53:54;26.02;41.70
70154;DHT22;57519;51.494;-2.626;2022-07-29T15:56:20;26.13;40.91
70154;DHT22;57519;51.494;-2.626;2022-07-29T15:58:46;25.99;40.68
70154;DHT22;57519;51.494;-2.626;2022-07-29T16:01:11;26.06;40.54
70154;DHT22;57519;51.494;-2.626;2022-07-29T16:03:37;25.85;39.60
70154;DHT22;57519;51.494;-2.626;2022-07-29T16:06:02;25.67;39.13
70154;DHT22;57519;51.494;-2.626;2022-07-29T16:08:28;25.48;39.01
70154;DHT22;57519;51.494;-2.626;2022-07-29T16:10:53;25.48;38.33